L Anse, Michigan
Current Conditions -  °F | °C
As of 12:53 AM on Friday 28 Nov 2014 (Local Time) from KCMX Reporting Station
Light Snow Light Snow  
Wind Chill:   Ceiling: 3100
Heat Index:   Visibility: 5mi
Dew Point:   Wind: 0mph
Humidity: 87%   Direction: NA
Pressure: 30.23"   Gusts: NA
Location:  46.7277°N, 88.2881°W
Report Text: KCMX 280553Z AUTO 00000KT 5SM -SN BR OVC031 M14/M16 A3023 RMK AO2 SLP265 P0000 60000 T11441161 11122 21144 58008
Loading
Personal Weather Stations






























Interactive Weather Map New forecast layout! Learn more

10-Day Weather Forecast

Advertisements
Track Severe Weather on mobile